sensor_id;sensor_type;location;lat;lon;timestamp;P1;durP1;ratioP1;P2;durP2;ratioP2
29984;SDS011;17387;42.690;23.328;2023-05-07T00:00:32;26.05;;;17.75;;
29984;SDS011;17387;42.690;23.328;2023-05-07T00:02:58;26.67;;;17.45;;
29984;SDS011;17387;42.690;23.328;2023-05-07T00:05:24;25.00;;;17.10;;
29984;SDS011;17387;42.690;23.328;2023-05-07T00:07:49;22.52;;;16.00;;
29984;SDS011;17387;42.690;23.328;2023-05-07T00:10:15;25.45;;;17.10;;
29984;SDS011;17387;42.690;23.328;2023-05-07T00:12:40;25.63;;;16.70;;
29984;SDS011;17387;42.690;23.328;2023-05-07T00:15:06;21.55;;;15.65;;
29984;SDS011;17387;42.690;23.328;2023-05-07T00:17:32;22.25;;;16.00;;
29984;SDS011;17387;42.690;23.328;2023-05-07T00:19:57;23.23;;;16.17;;
29984;SDS011;17387;42.690;23.328;2023-05-07T00:22:23;22.30;;;15.07;;
29984;SDS011;17387;42.690;23.328;2023-05-07T00:24:48;23.98;;;16.73;;
29984;SDS011;17387;42.690;23.328;2023-05-07T00:27:16;26.50;;;17.33;;
29984;SDS011;17387;42.690;23.328;2023-05-07T00:29:41;23.67;;;16.55;;
29984;SDS011;17387;42.690;23.328;2023-05-07T00:32:06;26.83;;;16.95;;
29984;SDS011;17387;42.690;23.328;2023-05-07T00:34:31;30.95;;;17.83;;
29984;SDS011;17387;42.690;23.328;2023-05-07T00:36:57;27.98;;;16.90;;
29984;SDS011;17387;42.690;23.328;2023-05-07T00:39:22;28.67;;;16.80;;
29984;SDS011;17387;42.690;23.328;2023-05-07T00:41:47;27.73;;;17.75;;
29984;SDS011;17387;42.690;23.328;2023-05-07T00:44:13;25.38;;;17.58;;
29984;SDS011;17387;42.690;23.328;2023-05-07T00:46:39;25.17;;;17.98;;
29984;SDS011;17387;42.690;23.328;2023-05-07T00:49:04;28.27;;;17.58;;
29984;SDS011;17387;42.690;23.328;2023-05-07T00:51:31;29.92;;;17.85;;
29984;SDS011;17387;42.690;23.328;2023-05-07T00:53:56;26.35;;;18.20;;
29984;SDS011;17387;42.690;23.328;2023-05-07T00:56:23;26.80;;;18.08;;
29984;SDS011;17387;42.690;23.328;2023-05-07T00:58:49;28.95;;;17.60;;
29984;SDS011;17387;42.690;23.328;2023-05-07T01:01:15;27.75;;;18.33;;
29984;SDS011;17387;42.690;23.328;2023-05-07T01:03:43;32.05;;;18.88;;
29984;SDS011;17387;42.690;23.328;2023-05-07T01:06:08;27.17;;;17.77;;
29984;SDS011;17387;42.690;23.328;2023-05-07T01:08:34;25.70;;;16.63;;
29984;SDS011;17387;42.690;23.328;2023-05-07T01:11:00;27.63;;;16.90;;
29984;SDS011;17387;42.690;23.328;2023-05-07T01:13:25;23.92;;;16.23;;
29984;SDS011;17387;42.690;23.328;2023-05-07T01:15:51;29.63;;;17.25;;
29984;SDS011;17387;42.690;23.328;2023-05-07T01:18:16;27.48;;;17.08;;
29984;SDS011;17387;42.690;23.328;2023-05-07T01:20:41;24.00;;;16.92;;
29984;SDS011;17387;42.690;23.328;2023-05-07T01:23:07;26.23;;;17.85;;
29984;SDS011;17387;42.690;23.328;2023-05-07T01:25:32;24.92;;;17.42;;
29984;SDS011;17387;42.690;23.328;2023-05-07T01:27:57;25.48;;;17.35;;
29984;SDS011;17387;42.690;23.328;2023-05-07T01:30:24;25.92;;;16.88;;
29984;SDS011;17387;42.690;23.328;2023-05-07T01:32:51;25.42;;;16.98;;
29984;SDS011;17387;42.690;23.328;2023-05-07T01:35:23;21.95;;;15.88;;
29984;SDS011;17387;42.690;23.328;2023-05-07T01:37:49;19.55;;;14.32;;
29984;SDS011;17387;42.690;23.328;2023-05-07T01:40:15;24.10;;;15.43;;
29984;SDS011;17387;42.690;23.328;2023-05-07T01:42:41;21.70;;;13.55;;
29984;SDS011;17387;42.690;23.328;2023-05-07T01:45:07;20.08;;;13.60;;
29984;SDS011;17387;42.690;23.328;2023-05-07T01:47:33;20.10;;;13.52;;
29984;SDS011;17387;42.690;23.328;2023-05-07T01:49:58;23.75;;;12.85;;
29984;SDS011;17387;42.690;23.328;2023-05-07T01:52:23;21.65;;;12.75;;
29984;SDS011;17387;42.690;23.328;2023-05-07T01:54:50;19.67;;;11.65;;
29984;SDS011;17387;42.690;23.328;2023-05-07T01:57:15;17.27;;;12.25;;
29984;SDS011;17387;42.690;23.328;2023-05-07T01:59:40;15.57;;;11.52;;
29984;SDS011;17387;42.690;23.328;2023-05-07T02:02:05;16.77;;;10.70;;
29984;SDS011;17387;42.690;23.328;2023-05-07T02:04:31;16.45;;;10.95;;
29984;SDS011;17387;42.690;23.328;2023-05-07T02:06:56;16.05;;;10.70;;
29984;SDS011;17387;42.690;23.328;2023-05-07T02:09:21;14.60;;;10.85;;
29984;SDS011;17387;42.690;23.328;2023-05-07T02:11:47;14.63;;;11.13;;
29984;SDS011;17387;42.690;23.328;2023-05-07T02:14:13;13.82;;;11.07;;
29984;SDS011;17387;42.690;23.328;2023-05-07T02:16:38;15.30;;;11.25;;
29984;SDS011;17387;42.690;23.328;2023-05-07T02:19:03;17.27;;;11.18;;
29984;SDS011;17387;42.690;23.328;2023-05-07T02:21:28;15.68;;;10.98;;
29984;SDS011;17387;42.690;23.328;2023-05-07T02:23:54;16.13;;;10.60;;
29984;SDS011;17387;42.690;23.328;2023-05-07T02:26:19;18.25;;;11.00;;
29984;SDS011;17387;42.690;23.328;2023-05-07T02:28:44;17.00;;;11.23;;
29984;SDS011;17387;42.690;23.328;2023-05-07T02:31:09;14.95;;;11.23;;
29984;SDS011;17387;42.690;23.328;2023-05-07T02:33:35;15.48;;;10.57;;
29984;SDS011;17387;42.690;23.328;2023-05-07T02:36:10;18.08;;;10.88;;
29984;SDS011;17387;42.690;23.328;2023-05-07T02:38:36;19.23;;;11.48;;
29984;SDS011;17387;42.690;23.328;2023-05-07T02:41:01;15.65;;;11.25;;
29984;SDS011;17387;42.690;23.328;2023-05-07T02:43:26;15.60;;;12.50;;
29984;SDS011;17387;42.690;23.328;2023-05-07T02:46:05;20.42;;;13.52;;
29984;SDS011;17387;42.690;23.328;2023-05-07T02:48:30;19.30;;;13.45;;
29984;SDS011;17387;42.690;23.328;2023-05-07T02:50:56;18.90;;;13.27;;
29984;SDS011;17387;42.690;23.328;2023-05-07T02:53:21;19.25;;;12.75;;
29984;SDS011;17387;42.690;23.328;2023-05-07T02:55:46;21.25;;;13.25;;
29984;SDS011;17387;42.690;23.328;2023-05-07T02:58:12;19.02;;;12.00;;
29984;SDS011;17387;42.690;23.328;2023-05-07T03:00:37;21.35;;;12.45;;
29984;SDS011;17387;42.690;23.328;2023-05-07T03:03:02;18.42;;;12.38;;
29984;SDS011;17387;42.690;23.328;2023-05-07T03:05:27;16.90;;;12.10;;
29984;SDS011;17387;42.690;23.328;2023-05-07T03:07:53;17.70;;;13.48;;
29984;SDS011;17387;42.690;23.328;2023-05-07T03:10:20;19.85;;;13.07;;
29984;SDS011;17387;42.690;23.328;2023-05-07T03:12:46;17.48;;;13.20;;
29984;SDS011;17387;42.690;23.328;2023-05-07T03:15:11;18.35;;;13.48;;
29984;SDS011;17387;42.690;23.328;2023-05-07T03:17:37;17.25;;;14.00;;
29984;SDS011;17387;42.690;23.328;2023-05-07T03:20:03;19.45;;;15.10;;
29984;SDS011;17387;42.690;23.328;2023-05-07T03:22:28;21.10;;;15.10;;
29984;SDS011;17387;42.690;23.328;2023-05-07T03:24:53;22.17;;;15.23;;
29984;SDS011;17387;42.690;23.328;2023-05-07T03:27:19;20.13;;;15.68;;
29984;SDS011;17387;42.690;23.328;2023-05-07T03:29:44;21.38;;;15.18;;
29984;SDS011;17387;42.690;23.328;2023-05-07T03:32:09;22.33;;;15.82;;
29984;SDS011;17387;42.690;23.328;2023-05-07T03:34:35;20.40;;;15.77;;
29984;SDS011;17387;42.690;23.328;2023-05-07T03:37:00;21.13;;;15.07;;
29984;SDS011;17387;42.690;23.328;2023-05-07T03:39:25;22.23;;;15.00;;
29984;SDS011;17387;42.690;23.328;2023-05-07T03:41:50;20.87;;;15.40;;
29984;SDS011;17387;42.690;23.328;2023-05-07T03:44:16;20.23;;;15.25;;
29984;SDS011;17387;42.690;23.328;2023-05-07T03:46:41;25.10;;;15.48;;
29984;SDS011;17387;42.690;23.328;2023-05-07T03:49:06;20.85;;;15.52;;
29984;SDS011;17387;42.690;23.328;2023-05-07T03:51:31;20.63;;;15.30;;
29984;SDS011;17387;42.690;23.328;2023-05-07T03:53:57;20.02;;;15.40;;
29984;SDS011;17387;42.690;23.328;2023-05-07T03:56:22;20.73;;;15.65;;
29984;SDS011;17387;42.690;23.328;2023-05-07T03:58:51;20.40;;;14.43;;
29984;SDS011;17387;42.690;23.328;2023-05-07T04:01:16;20.83;;;15.00;;
29984;SDS011;17387;42.690;23.328;2023-05-07T04:03:41;21.70;;;15.27;;
29984;SDS011;17387;42.690;23.328;2023-05-07T04:06:06;23.27;;;14.95;;
29984;SDS011;17387;42.690;23.328;2023-05-07T04:08:32;23.33;;;14.85;;
29984;SDS011;17387;42.690;23.328;2023-05-07T04:10:57;23.38;;;14.93;;
29984;SDS011;17387;42.690;23.328;2023-05-07T04:13:23;24.33;;;15.20;;
29984;SDS011;17387;42.690;23.328;2023-05-07T04:15:48;20.50;;;14.65;;
29984;SDS011;17387;42.690;23.328;2023-05-07T04:18:14;20.35;;;14.20;;
29984;SDS011;17387;42.690;23.328;2023-05-07T04:20:39;22.70;;;14.55;;
29984;SDS011;17387;42.690;23.328;2023-05-07T04:23:04;25.17;;;14.02;;
29984;SDS011;17387;42.690;23.328;2023-05-07T04:25:30;21.67;;;14.32;;
29984;SDS011;17387;42.690;23.328;2023-05-07T04:27:58;18.60;;;13.75;;
29984;SDS011;17387;42.690;23.328;2023-05-07T04:30:23;23.30;;;14.35;;
29984;SDS011;17387;42.690;23.328;2023-05-07T04:32:49;20.85;;;13.38;;
29984;SDS011;17387;42.690;23.328;2023-05-07T04:35:14;19.55;;;14.25;;
29984;SDS011;17387;42.690;23.328;2023-05-07T04:37:39;22.15;;;13.88;;
29984;SDS011;17387;42.690;23.328;2023-05-07T04:40:05;18.48;;;13.80;;
29984;SDS011;17387;42.690;23.328;2023-05-07T04:42:30;18.98;;;14.15;;
29984;SDS011;17387;42.690;23.328;2023-05-07T04:44:56;16.77;;;13.63;;
29984;SDS011;17387;42.690;23.328;2023-05-07T04:47:21;20.80;;;14.23;;
29984;SDS011;17387;42.690;23.328;2023-05-07T04:49:46;21.38;;;13.52;;
29984;SDS011;17387;42.690;23.328;2023-05-07T04:52:12;21.33;;;14.20;;
29984;SDS011;17387;42.690;23.328;2023-05-07T04:54:37;20.73;;;13.63;;
29984;SDS011;17387;42.690;23.328;2023-05-07T04:57:03;19.07;;;14.57;;
29984;SDS011;17387;42.690;23.328;2023-05-07T04:59:28;18.08;;;13.48;;
29984;SDS011;17387;42.690;23.328;2023-05-07T05:01:53;19.20;;;14.15;;
29984;SDS011;17387;42.690;23.328;2023-05-07T05:04:19;21.38;;;14.35;;
29984;SDS011;17387;42.690;23.328;2023-05-07T05:06:44;21.05;;;14.32;;
29984;SDS011;17387;42.690;23.328;2023-05-07T05:09:09;18.83;;;14.67;;
29984;SDS011;17387;42.690;23.328;2023-05-07T05:11:36;21.25;;;15.00;;
29984;SDS011;17387;42.690;23.328;2023-05-07T05:14:01;21.02;;;14.77;;
29984;SDS011;17387;42.690;23.328;2023-05-07T05:16:27;23.27;;;15.68;;
29984;SDS011;17387;42.690;23.328;2023-05-07T05:18:52;23.95;;;15.32;;
29984;SDS011;17387;42.690;23.328;2023-05-07T05:21:19;22.23;;;14.63;;
29984;SDS011;17387;42.690;23.328;2023-05-07T05:23:44;25.08;;;16.10;;
29984;SDS011;17387;42.690;23.328;2023-05-07T05:26:10;21.40;;;15.48;;
29984;SDS011;17387;42.690;23.328;2023-05-07T05:28:35;21.08;;;15.25;;
29984;SDS011;17387;42.690;23.328;2023-05-07T05:31:00;22.00;;;15.60;;
29984;SDS011;17387;42.690;23.328;2023-05-07T05:33:26;21.10;;;15.30;;
29984;SDS011;17387;42.690;23.328;2023-05-07T05:35:51;20.63;;;15.45;;
29984;SDS011;17387;42.690;23.328;2023-05-07T05:38:17;23.80;;;15.15;;
29984;SDS011;17387;42.690;23.328;2023-05-07T05:40:42;20.80;;;16.38;;
29984;SDS011;17387;42.690;23.328;2023-05-07T05:43:07;20.83;;;15.57;;
29984;SDS011;17387;42.690;23.328;2023-05-07T05:45:32;22.33;;;15.47;;
29984;SDS011;17387;42.690;23.328;2023-05-07T05:47:58;22.15;;;15.38;;
29984;SDS011;17387;42.690;23.328;2023-05-07T05:50:23;23.37;;;15.43;;
29984;SDS011;17387;42.690;23.328;2023-05-07T05:52:48;19.77;;;15.38;;
29984;SDS011;17387;42.690;23.328;2023-05-07T05:55:14;22.00;;;15.50;;
29984;SDS011;17387;42.690;23.328;2023-05-07T05:57:39;20.80;;;15.07;;
29984;SDS011;17387;42.690;23.328;2023-05-07T06:00:05;21.33;;;15.40;;
29984;SDS011;17387;42.690;23.328;2023-05-07T06:02:36;19.05;;;14.77;;
29984;SDS011;17387;42.690;23.328;2023-05-07T06:05:02;19.67;;;15.17;;
29984;SDS011;17387;42.690;23.328;2023-05-07T06:07:27;19.25;;;14.27;;
29984;SDS011;17387;42.690;23.328;2023-05-07T06:09:53;20.42;;;14.98;;
29984;SDS011;17387;42.690;23.328;2023-05-07T06:12:18;17.20;;;13.73;;
29984;SDS011;17387;42.690;23.328;2023-05-07T06:14:43;19.90;;;15.37;;
29984;SDS011;17387;42.690;23.328;2023-05-07T06:17:09;21.40;;;15.25;;
29984;SDS011;17387;42.690;23.328;2023-05-07T06:19:37;21.17;;;14.85;;
29984;SDS011;17387;42.690;23.328;2023-05-07T06:22:02;20.02;;;14.50;;
29984;SDS011;17387;42.690;23.328;2023-05-07T06:24:28;20.90;;;14.88;;
29984;SDS011;17387;42.690;23.328;2023-05-07T06:26:53;18.92;;;14.38;;
29984;SDS011;17387;42.690;23.328;2023-05-07T06:29:19;21.73;;;14.85;;
29984;SDS011;17387;42.690;23.328;2023-05-07T06:31:44;21.05;;;14.30;;
29984;SDS011;17387;42.690;23.328;2023-05-07T06:34:09;21.60;;;14.40;;
29984;SDS011;17387;42.690;23.328;2023-05-07T06:36:35;22.30;;;15.35;;
29984;SDS011;17387;42.690;23.328;2023-05-07T06:39:00;19.67;;;14.93;;
29984;SDS011;17387;42.690;23.328;2023-05-07T06:41:26;22.60;;;14.77;;
29984;SDS011;17387;42.690;23.328;2023-05-07T06:43:51;19.65;;;14.27;;
29984;SDS011;17387;42.690;23.328;2023-05-07T06:46:16;18.20;;;12.80;;
29984;SDS011;17387;42.690;23.328;2023-05-07T06:48:44;18.45;;;14.07;;
29984;SDS011;17387;42.690;23.328;2023-05-07T06:51:09;20.95;;;13.60;;
29984;SDS011;17387;42.690;23.328;2023-05-07T06:53:35;19.33;;;13.18;;
29984;SDS011;17387;42.690;23.328;2023-05-07T06:56:03;17.35;;;12.77;;
29984;SDS011;17387;42.690;23.328;2023-05-07T06:58:28;19.63;;;13.15;;
29984;SDS011;17387;42.690;23.328;2023-05-07T07:00:53;19.08;;;14.15;;
29984;SDS011;17387;42.690;23.328;2023-05-07T07:03:18;19.30;;;13.67;;
29984;SDS011;17387;42.690;23.328;2023-05-07T07:05:44;25.75;;;17.85;;
29984;SDS011;17387;42.690;23.328;2023-05-07T07:08:09;21.73;;;15.03;;
29984;SDS011;17387;42.690;23.328;2023-05-07T07:10:35;30.42;;;19.25;;
29984;SDS011;17387;42.690;23.328;2023-05-07T07:13:00;18.73;;;13.80;;
29984;SDS011;17387;42.690;23.328;2023-05-07T07:15:25;17.70;;;13.55;;
29984;SDS011;17387;42.690;23.328;2023-05-07T07:17:50;17.05;;;12.90;;
29984;SDS011;17387;42.690;23.328;2023-05-07T07:20:16;19.58;;;12.73;;
29984;SDS011;17387;42.690;23.328;2023-05-07T07:22:41;16.95;;;12.93;;
29984;SDS011;17387;42.690;23.328;2023-05-07T07:25:07;17.38;;;12.75;;
29984;SDS011;17387;42.690;23.328;2023-05-07T07:27:32;17.98;;;13.02;;
29984;SDS011;17387;42.690;23.328;2023-05-07T07:29:57;20.27;;;13.70;;
29984;SDS011;17387;42.690;23.328;2023-05-07T07:32:22;17.33;;;13.10;;
29984;SDS011;17387;42.690;23.328;2023-05-07T07:34:48;15.60;;;11.85;;
29984;SDS011;17387;42.690;23.328;2023-05-07T07:37:13;18.17;;;13.40;;
29984;SDS011;17387;42.690;23.328;2023-05-07T07:39:38;20.92;;;12.30;;
29984;SDS011;17387;42.690;23.328;2023-05-07T07:42:04;20.90;;;13.88;;
29984;SDS011;17387;42.690;23.328;2023-05-07T07:44:29;15.75;;;12.25;;
29984;SDS011;17387;42.690;23.328;2023-05-07T07:46:54;21.70;;;14.32;;
29984;SDS011;17387;42.690;23.328;2023-05-07T07:49:23;17.55;;;13.10;;
29984;SDS011;17387;42.690;23.328;2023-05-07T07:51:48;21.83;;;14.25;;
29984;SDS011;17387;42.690;23.328;2023-05-07T07:54:13;19.40;;;13.55;;
29984;SDS011;17387;42.690;23.328;2023-05-07T07:56:39;19.63;;;13.02;;
29984;SDS011;17387;42.690;23.328;2023-05-07T07:59:04;18.40;;;12.23;;
29984;SDS011;17387;42.690;23.328;2023-05-07T08:01:30;16.30;;;11.43;;
29984;SDS011;17387;42.690;23.328;2023-05-07T08:03:57;16.38;;;11.80;;
29984;SDS011;17387;42.690;23.328;2023-05-07T08:06:23;16.88;;;11.30;;
29984;SDS011;17387;42.690;23.328;2023-05-07T08:08:49;17.92;;;11.88;;
29984;SDS011;17387;42.690;23.328;2023-05-07T08:11:14;18.07;;;12.33;;
29984;SDS011;17387;42.690;23.328;2023-05-07T08:13:39;17.63;;;12.15;;
29984;SDS011;17387;42.690;23.328;2023-05-07T08:16:05;21.75;;;11.93;;
29984;SDS011;17387;42.690;23.328;2023-05-07T08:18:30;16.33;;;12.02;;
29984;SDS011;17387;42.690;23.328;2023-05-07T08:20:55;12.20;;;10.63;;
29984;SDS011;17387;42.690;23.328;2023-05-07T08:23:28;14.30;;;10.00;;
29984;SDS011;17387;42.690;23.328;2023-05-07T08:25:53;13.85;;;10.10;;
29984;SDS011;17387;42.690;23.328;2023-05-07T08:28:19;24.50;;;13.93;;
29984;SDS011;17387;42.690;23.328;2023-05-07T08:30:46;15.23;;;10.13;;
29984;SDS011;17387;42.690;23.328;2023-05-07T08:33:11;14.95;;;10.30;;
29984;SDS011;17387;42.690;23.328;2023-05-07T08:35:37;11.93;;;9.88;;
29984;SDS011;17387;42.690;23.328;2023-05-07T08:38:02;20.60;;;11.15;;
29984;SDS011;17387;42.690;23.328;2023-05-07T08:40:27;13.98;;;9.63;;
29984;SDS011;17387;42.690;23.328;2023-05-07T08:42:53;18.73;;;10.88;;
29984;SDS011;17387;42.690;23.328;2023-05-07T08:45:20;14.35;;;9.10;;
29984;SDS011;17387;42.690;23.328;2023-05-07T08:47:46;13.70;;;9.55;;
29984;SDS011;17387;42.690;23.328;2023-05-07T08:50:15;16.63;;;8.93;;
29984;SDS011;17387;42.690;23.328;2023-05-07T08:52:40;16.85;;;10.35;;
29984;SDS011;17387;42.690;23.328;2023-05-07T08:55:06;18.92;;;12.27;;
29984;SDS011;17387;42.690;23.328;2023-05-07T08:57:32;16.38;;;11.00;;
29984;SDS011;17387;42.690;23.328;2023-05-07T08:59:57;11.30;;;8.63;;
29984;SDS011;17387;42.690;23.328;2023-05-07T09:02:22;16.50;;;10.52;;
29984;SDS011;17387;42.690;23.328;2023-05-07T09:04:48;19.02;;;10.95;;
29984;SDS011;17387;42.690;23.328;2023-05-07T09:07:13;14.70;;;8.52;;
29984;SDS011;17387;42.690;23.328;2023-05-07T09:09:38;9.45;;;7.57;;
29984;SDS011;17387;42.690;23.328;2023-05-07T09:12:03;9.93;;;8.40;;
29984;SDS011;17387;42.690;23.328;2023-05-07T09:14:29;15.18;;;8.40;;
29984;SDS011;17387;42.690;23.328;2023-05-07T09:16:55;21.73;;;12.13;;
29984;SDS011;17387;42.690;23.328;2023-05-07T09:19:24;9.35;;;8.00;;
29984;SDS011;17387;42.690;23.328;2023-05-07T09:21:49;11.85;;;7.68;;
29984;SDS011;17387;42.690;23.328;2023-05-07T09:24:15;12.90;;;7.78;;
29984;SDS011;17387;42.690;23.328;2023-05-07T09:26:42;11.68;;;8.30;;
29984;SDS011;17387;42.690;23.328;2023-05-07T09:29:09;9.18;;;6.40;;
29984;SDS011;17387;42.690;23.328;2023-05-07T09:31:38;8.30;;;5.97;;
29984;SDS011;17387;42.690;23.328;2023-05-07T09:34:04;8.07;;;6.55;;
29984;SDS011;17387;42.690;23.328;2023-05-07T09:36:29;10.02;;;6.32;;
29984;SDS011;17387;42.690;23.328;2023-05-07T09:38:56;8.93;;;6.28;;
29984;SDS011;17387;42.690;23.328;2023-05-07T09:41:24;8.77;;;6.15;;
29984;SDS011;17387;42.690;23.328;2023-05-07T09:43:52;10.33;;;5.00;;
29984;SDS011;17387;42.690;23.328;2023-05-07T09:46:18;8.77;;;4.50;;
29984;SDS011;17387;42.690;23.328;2023-05-07T09:48:49;5.40;;;3.85;;
29984;SDS011;17387;42.690;23.328;2023-05-07T09:54:15;9.50;;;5.22;;
29984;SDS011;17387;42.690;23.328;2023-05-07T09:56:41;7.32;;;4.15;;
29984;SDS011;17387;42.690;23.328;2023-05-07T09:59:07;8.27;;;5.00;;
29984;SDS011;17387;42.690;23.328;2023-05-07T10:01:33;8.18;;;4.97;;
29984;SDS011;17387;42.690;23.328;2023-05-07T10:04:01;5.95;;;5.07;;
29984;SDS011;17387;42.690;23.328;2023-05-07T10:06:26;8.00;;;5.38;;
29984;SDS011;17387;42.690;23.328;2023-05-07T10:08:52;5.53;;;4.60;;
29984;SDS011;17387;42.690;23.328;2023-05-07T10:11:18;6.13;;;4.30;;
29984;SDS011;17387;42.690;23.328;2023-05-07T10:13:43;5.40;;;4.18;;
29984;SDS011;17387;42.690;23.328;2023-05-07T10:16:09;8.70;;;4.22;;
29984;SDS011;17387;42.690;23.328;2023-05-07T10:18:34;12.32;;;6.70;;
29984;SDS011;17387;42.690;23.328;2023-05-07T10:21:18;11.85;;;5.45;;
29984;SDS011;17387;42.690;23.328;2023-05-07T10:23:50;5.63;;;4.03;;
29984;SDS011;17387;42.690;23.328;2023-05-07T10:26:17;6.28;;;4.40;;
29984;SDS011;17387;42.690;23.328;2023-05-07T10:28:44;5.50;;;3.88;;
29984;SDS011;17387;42.690;23.328;2023-05-07T10:33:36;5.20;;;3.60;;
29984;SDS011;17387;42.690;23.328;2023-05-07T10:36:02;4.25;;;3.60;;
29984;SDS011;17387;42.690;23.328;2023-05-07T10:38:29;5.38;;;3.80;;
29984;SDS011;17387;42.690;23.328;2023-05-07T10:40:55;9.27;;;4.55;;
29984;SDS011;17387;42.690;23.328;2023-05-07T10:43:20;13.93;;;10.30;;
29984;SDS011;17387;42.690;23.328;2023-05-07T10:48:33;9.40;;;5.90;;
29984;SDS011;17387;42.690;23.328;2023-05-07T10:53:45;6.50;;;5.38;;
29984;SDS011;17387;42.690;23.328;2023-05-07T10:58:45;5.07;;;4.35;;
29984;SDS011;17387;42.690;23.328;2023-05-07T11:01:10;6.03;;;4.50;;
29984;SDS011;17387;42.690;23.328;2023-05-07T11:12:17;4.35;;;3.95;;
29984;SDS011;17387;42.690;23.328;2023-05-07T11:14:42;5.20;;;4.07;;
29984;SDS011;17387;42.690;23.328;2023-05-07T11:17:08;8.05;;;4.65;;
29984;SDS011;17387;42.690;23.328;2023-05-07T11:19:53;5.60;;;4.20;;
29984;SDS011;17387;42.690;23.328;2023-05-07T11:24:56;7.82;;;4.38;;
29984;SDS011;17387;42.690;23.328;2023-05-07T11:27:24;7.38;;;4.60;;
29984;SDS011;17387;42.690;23.328;2023-05-07T11:29:52;7.22;;;5.10;;
29984;SDS011;17387;42.690;23.328;2023-05-07T11:32:24;5.03;;;4.10;;
29984;SDS011;17387;42.690;23.328;2023-05-07T11:34:55;6.63;;;4.68;;
29984;SDS011;17387;42.690;23.328;2023-05-07T11:37:21;4.63;;;4.13;;
29984;SDS011;17387;42.690;23.328;2023-05-07T11:39:46;8.68;;;4.47;;
29984;SDS011;17387;42.690;23.328;2023-05-07T11:42:28;5.57;;;3.92;;
29984;SDS011;17387;42.690;23.328;2023-05-07T11:44:53;4.40;;;4.00;;
29984;SDS011;17387;42.690;23.328;2023-05-07T11:47:18;4.57;;;4.07;;
29984;SDS011;17387;42.690;23.328;2023-05-07T11:49:48;7.03;;;4.85;;
29984;SDS011;17387;42.690;23.328;2023-05-07T11:52:13;4.80;;;4.30;;
29984;SDS011;17387;42.690;23.328;2023-05-07T11:54:39;8.13;;;5.65;;
29984;SDS011;17387;42.690;23.328;2023-05-07T11:57:04;12.65;;;9.48;;
29984;SDS011;17387;42.690;23.328;2023-05-07T11:59:35;8.73;;;5.70;;
29984;SDS011;17387;42.690;23.328;2023-05-07T12:02:02;11.63;;;7.75;;
29984;SDS011;17387;42.690;23.328;2023-05-07T12:04:29;8.30;;;5.70;;
29984;SDS011;17387;42.690;23.328;2023-05-07T12:06:54;4.00;;;3.08;;
29984;SDS011;17387;42.690;23.328;2023-05-07T12:09:20;5.20;;;3.50;;
29984;SDS011;17387;42.690;23.328;2023-05-07T12:11:46;4.82;;;3.70;;
29984;SDS011;17387;42.690;23.328;2023-05-07T12:14:11;4.88;;;3.50;;
29984;SDS011;17387;42.690;23.328;2023-05-07T12:16:36;4.18;;;3.45;;
29984;SDS011;17387;42.690;23.328;2023-05-07T12:19:02;4.45;;;3.55;;
29984;SDS011;17387;42.690;23.328;2023-05-07T12:21:27;6.18;;;4.05;;
29984;SDS011;17387;42.690;23.328;2023-05-07T12:23:53;5.00;;;3.22;;
29984;SDS011;17387;42.690;23.328;2023-05-07T12:26:19;3.70;;;3.40;;
29984;SDS011;17387;42.690;23.328;2023-05-07T12:28:45;13.27;;;10.65;;
29984;SDS011;17387;42.690;23.328;2023-05-07T12:31:11;2.85;;;2.55;;
29984;SDS011;17387;42.690;23.328;2023-05-07T12:33:36;4.70;;;3.10;;
29984;SDS011;17387;42.690;23.328;2023-05-07T12:36:08;3.03;;;2.72;;
29984;SDS011;17387;42.690;23.328;2023-05-07T12:38:39;3.38;;;2.80;;
29984;SDS011;17387;42.690;23.328;2023-05-07T12:41:06;6.18;;;3.40;;
29984;SDS011;17387;42.690;23.328;2023-05-07T12:43:32;4.60;;;4.18;;
29984;SDS011;17387;42.690;23.328;2023-05-07T12:46:02;4.82;;;4.03;;
29984;SDS011;17387;42.690;23.328;2023-05-07T12:48:28;6.38;;;3.33;;
29984;SDS011;17387;42.690;23.328;2023-05-07T12:50:53;3.67;;;2.58;;
29984;SDS011;17387;42.690;23.328;2023-05-07T12:53:20;5.00;;;3.10;;
29984;SDS011;17387;42.690;23.328;2023-05-07T12:55:46;25.20;;;13.48;;
29984;SDS011;17387;42.690;23.328;2023-05-07T12:58:24;3.72;;;3.17;;
29984;SDS011;17387;42.690;23.328;2023-05-07T13:00:50;3.55;;;2.80;;
29984;SDS011;17387;42.690;23.328;2023-05-07T13:03:26;4.22;;;2.92;;
29984;SDS011;17387;42.690;23.328;2023-05-07T13:05:51;3.17;;;2.60;;
29984;SDS011;17387;42.690;23.328;2023-05-07T13:08:37;4.95;;;2.70;;
29984;SDS011;17387;42.690;23.328;2023-05-07T13:11:07;5.55;;;2.83;;
29984;SDS011;17387;42.690;23.328;2023-05-07T13:13:34;3.72;;;3.17;;
29984;SDS011;17387;42.690;23.328;2023-05-07T13:16:00;2.95;;;2.60;;
29984;SDS011;17387;42.690;23.328;2023-05-07T13:18:26;11.45;;;8.00;;
29984;SDS011;17387;42.690;23.328;2023-05-07T13:20:51;4.07;;;3.13;;
29984;SDS011;17387;42.690;23.328;2023-05-07T13:23:17;12.32;;;6.22;;
29984;SDS011;17387;42.690;23.328;2023-05-07T13:25:42;2.70;;;2.42;;
29984;SDS011;17387;42.690;23.328;2023-05-07T13:28:07;5.38;;;3.78;;
29984;SDS011;17387;42.690;23.328;2023-05-07T13:30:33;3.28;;;2.97;;
29984;SDS011;17387;42.690;23.328;2023-05-07T13:32:58;4.13;;;3.30;;
29984;SDS011;17387;42.690;23.328;2023-05-07T13:35:23;3.55;;;2.83;;
29984;SDS011;17387;42.690;23.328;2023-05-07T13:37:49;6.70;;;3.33;;
29984;SDS011;17387;42.690;23.328;2023-05-07T13:40:15;7.15;;;4.13;;
29984;SDS011;17387;42.690;23.328;2023-05-07T13:42:40;4.97;;;3.10;;
29984;SDS011;17387;42.690;23.328;2023-05-07T13:45:08;5.00;;;2.53;;
29984;SDS011;17387;42.690;23.328;2023-05-07T13:47:34;3.88;;;2.75;;
29984;SDS011;17387;42.690;23.328;2023-05-07T13:49:59;3.17;;;2.70;;
29984;SDS011;17387;42.690;23.328;2023-05-07T13:52:24;4.53;;;2.80;;
29984;SDS011;17387;42.690;23.328;2023-05-07T13:54:50;5.93;;;3.00;;
29984;SDS011;17387;42.690;23.328;2023-05-07T13:57:17;4.78;;;3.97;;
29984;SDS011;17387;42.690;23.328;2023-05-07T13:59:42;2.90;;;2.55;;
29984;SDS011;17387;42.690;23.328;2023-05-07T14:02:07;4.10;;;3.60;;
29984;SDS011;17387;42.690;23.328;2023-05-07T14:04:34;3.20;;;2.90;;
29984;SDS011;17387;42.690;23.328;2023-05-07T14:06:59;5.60;;;3.30;;
29984;SDS011;17387;42.690;23.328;2023-05-07T14:09:25;3.38;;;3.00;;
29984;SDS011;17387;42.690;23.328;2023-05-07T14:11:50;2.88;;;2.50;;
29984;SDS011;17387;42.690;23.328;2023-05-07T14:14:19;5.70;;;2.80;;
29984;SDS011;17387;42.690;23.328;2023-05-07T14:16:44;5.53;;;3.60;;
29984;SDS011;17387;42.690;23.328;2023-05-07T14:19:10;3.40;;;2.60;;
29984;SDS011;17387;42.690;23.328;2023-05-07T14:21:35;3.45;;;3.15;;
29984;SDS011;17387;42.690;23.328;2023-05-07T14:24:00;4.33;;;2.77;;
29984;SDS011;17387;42.690;23.328;2023-05-07T14:26:26;4.95;;;2.92;;
29984;SDS011;17387;42.690;23.328;2023-05-07T14:28:52;3.75;;;3.17;;
29984;SDS011;17387;42.690;23.328;2023-05-07T14:31:17;17.52;;;14.43;;
29984;SDS011;17387;42.690;23.328;2023-05-07T14:33:42;5.22;;;2.88;;
29984;SDS011;17387;42.690;23.328;2023-05-07T14:36:08;5.65;;;3.38;;